createdAt,value
2022-09-02T00:01:31.824Z,98752.34
2022-09-02T00:04:07.944Z,98761.25
2022-09-02T00:06:36.620Z,98755.84
2022-09-02T00:09:05.931Z,98759.38
2022-09-02T00:11:34.973Z,98758.34
2022-09-02T00:14:05.689Z,98759.38
2022-09-02T00:16:34.309Z,98755.84
2022-09-02T00:19:04.540Z,98752.34
2022-09-02T00:21:35.943Z,98754.00
2022-09-02T00:24:05.856Z,98753.16
2022-09-02T00:26:34.402Z,98756.84
2022-09-02T00:29:02.918Z,98750.63
2022-09-02T00:31:33.738Z,98748.97
2022-09-02T00:34:03.793Z,98743.59
2022-09-02T00:36:32.225Z,98745.25
2022-09-02T00:39:00.805Z,98742.75
2022-09-02T00:41:30.682Z,98743.75
2022-09-02T00:44:01.011Z,98737.38
2022-09-02T00:46:31.411Z,98736.53
2022-09-02T00:49:03.980Z,98742.75
2022-09-02T00:51:35.712Z,98738.19
2022-09-02T00:54:06.321Z,98738.34
2022-09-02T00:56:34.954Z,98736.53
2022-09-02T00:59:03.609Z,98731.97
2022-09-02T01:01:32.100Z,98738.19
2022-09-02T01:04:00.654Z,98733.84
2022-09-02T01:06:33.327Z,98726.75
2022-09-02T01:09:06.050Z,98735.66
2022-09-02T01:11:40.004Z,98729.44
2022-09-02T01:14:10.214Z,98727.78
2022-09-02T01:16:43.007Z,98732.13
2022-09-02T01:19:19.708Z,98732.13
2022-09-02T01:21:50.587Z,98731.47
2022-09-02T01:24:19.158Z,98733.16
2022-09-02T01:26:47.662Z,98733.16
2022-09-02T01:29:17.929Z,98737.72
2022-09-02T01:31:46.590Z,98725.25
2022-09-02T01:34:15.116Z,98726.09
2022-09-02T01:36:44.451Z,98725.25
2022-09-02T01:39:14.566Z,98736.03
2022-09-02T01:41:43.136Z,98734.34
2022-09-02T01:44:12.346Z,98724.41
2022-09-02T01:46:40.940Z,98735.19
2022-09-02T01:49:09.489Z,98730.63
2022-09-02T01:51:38.130Z,98735.19
2022-09-02T01:54:07.034Z,98732.50
2022-09-02T01:56:37.105Z,98724.41
2022-09-02T01:59:07.907Z,98722.75
2022-09-02T02:01:36.785Z,98723.59
2022-09-02T02:04:07.497Z,98728.97
2022-09-02T02:06:40.563Z,98723.59
2022-09-02T02:09:09.215Z,98724.41
2022-09-02T02:11:39.283Z,98716.34
2022-09-02T02:14:07.804Z,98711.13
2022-09-02T02:16:36.344Z,98706.59
2022-09-02T02:19:05.308Z,98706.59
2022-09-02T02:21:33.986Z,98719.03
2022-09-02T02:24:02.634Z,98714.84
2022-09-02T02:26:31.350Z,98714.84
2022-09-02T02:29:01.282Z,98712.97
2022-09-02T02:31:29.779Z,98714.84
2022-09-02T02:33:58.344Z,98711.97
2022-09-02T02:36:27.054Z,98714.84
2022-09-02T02:38:55.720Z,98717.53
2022-09-02T02:41:24.177Z,98719.38
2022-09-02T02:43:52.625Z,98714.00
2022-09-02T02:46:22.499Z,98719.38
2022-09-02T02:48:50.984Z,98718.56
2022-09-02T02:51:20.175Z,98711.47
2022-09-02T02:53:48.690Z,98706.91
2022-09-02T02:56:17.161Z,98711.47
2022-09-02T02:58:45.816Z,98716.03
2022-09-02T03:01:14.279Z,98709.81
2022-09-02T03:03:44.756Z,98708.13
2022-09-02T03:06:13.231Z,98708.97
2022-09-02T03:08:42.024Z,98707.28
2022-09-02T03:11:10.558Z,98709.81
2022-09-02T03:13:39.075Z,98704.41
2022-09-02T03:16:07.600Z,98702.75
2022-09-02T03:18:36.068Z,98704.56
2022-09-02T03:21:08.660Z,98699.19
2022-09-02T03:23:37.418Z,98699.19
2022-09-02T03:26:11.330Z,98707.28
2022-09-02T03:28:39.961Z,98707.28
2022-09-02T03:31:08.859Z,98711.00
2022-09-02T03:33:37.455Z,98709.13
2022-09-02T03:36:07.804Z,98705.59
2022-09-02T03:38:36.803Z,98708.31
2022-09-02T03:41:05.365Z,98705.59
2022-09-02T03:43:33.796Z,98703.94
2022-09-02T03:46:02.438Z,98708.47
2022-09-02T03:48:31.020Z,98714.72
2022-09-02T03:50:59.480Z,98714.72
2022-09-02T03:53:29.300Z,98719.06
2022-09-02T03:55:57.710Z,98714.72
2022-09-02T03:58:26.263Z,98713.84
2022-09-02T04:00:55.159Z,98713.84
2022-09-02T04:03:23.885Z,98721.94
2022-09-02T04:05:52.925Z,98722.78
2022-09-02T04:08:21.407Z,98720.25
2022-09-02T04:10:51.381Z,98722.13
2022-09-02T04:13:20.150Z,98719.44
2022-09-02T04:15:49.506Z,98725.66
2022-09-02T04:18:18.408Z,98717.56
2022-09-02T04:20:47.059Z,98723.97
2022-09-02T04:23:16.573Z,98722.13
2022-09-02T04:25:45.388Z,98722.13
2022-09-02T04:28:15.294Z,98717.72
2022-09-02T04:30:43.959Z,98715.03
2022-09-02T04:33:12.509Z,98723.97
2022-09-02T04:35:41.956Z,98715.03
2022-09-02T04:38:10.627Z,98720.41
2022-09-02T04:40:42.073Z,98725.81
2022-09-02T04:43:10.764Z,98724.97
2022-09-02T04:45:42.662Z,98724.13
2022-09-02T04:48:11.338Z,98728.69
2022-09-02T04:50:40.933Z,98723.13
2022-09-02T04:53:09.491Z,98719.59
2022-09-02T04:55:40.503Z,98719.59
2022-09-02T04:58:09.069Z,98731.19
2022-09-02T05:00:38.789Z,98723.97
2022-09-02T05:03:08.666Z,98725.81
2022-09-02T05:05:39.189Z,98723.97
2022-09-02T05:08:07.886Z,98721.09
2022-09-02T05:10:36.599Z,98721.94
2022-09-02T05:13:05.127Z,98721.75
2022-09-02T05:15:33.777Z,98719.75
2022-09-02T05:18:02.185Z,98715.34
2022-09-02T05:20:34.085Z,98712.19
2022-09-02T05:23:02.513Z,98716.91
2022-09-02T05:25:31.472Z,98712.34
2022-09-02T05:27:59.891Z,98715.03
2022-09-02T05:30:28.439Z,98713.72
2022-09-02T05:32:57.254Z,98717.09
2022-09-02T05:35:25.702Z,98712.06
2022-09-02T05:38:00.171Z,98710.00
2022-09-02T05:40:29.543Z,98710.00
2022-09-02T05:42:58.016Z,98706.31
2022-09-02T05:45:26.472Z,98708.81
2022-09-02T05:47:54.885Z,98711.69
2022-09-02T05:50:23.300Z,98716.06
2022-09-02T05:52:52.358Z,98715.03
2022-09-02T05:55:22.258Z,98710.34
2022-09-02T05:57:50.812Z,98711.38
2022-09-02T06:00:19.522Z,98707.84
2022-09-02T06:02:47.989Z,98714.06
2022-09-02T06:05:18.119Z,98707.00
2022-09-02T06:07:46.622Z,98714.75
2022-09-02T06:10:17.829Z,98717.44
2022-09-02T06:12:47.686Z,98716.41
2022-09-02T06:15:16.141Z,98715.59
2022-09-02T06:17:44.558Z,98718.28
2022-09-02T06:20:13.158Z,98726.34
2022-09-02T06:22:41.612Z,98719.94
2022-09-02T06:25:10.759Z,98724.50
2022-09-02T06:27:40.147Z,98728.84
2022-09-02T06:30:12.009Z,98725.31
2022-09-02T06:32:40.472Z,98724.31
2022-09-02T06:35:10.853Z,98730.56
2022-09-02T06:37:39.267Z,98720.63
2022-09-02T06:40:08.864Z,98727.84
2022-09-02T06:42:37.282Z,98723.31
2022-09-02T06:45:06.824Z,98727.84
2022-09-02T06:47:36.696Z,98729.69
2022-09-02T06:50:05.866Z,98729.53
2022-09-02T06:52:34.467Z,98727.66
2022-09-02T06:55:02.877Z,98735.38
2022-09-02T06:57:34.349Z,98729.38
2022-09-02T07:00:04.030Z,98732.88
2022-09-02T07:02:32.490Z,98727.50
2022-09-02T07:05:10.198Z,98733.56
2022-09-02T07:07:39.268Z,98735.59
2022-09-02T07:10:09.698Z,98736.88
2022-09-02T07:12:38.429Z,98740.44
2022-09-02T07:15:08.114Z,98736.88
2022-09-02T07:17:36.719Z,98740.25
2022-09-02T07:20:08.058Z,98737.91
2022-09-02T07:22:36.549Z,98736.25
2022-09-02T07:25:06.345Z,98742.28
2022-09-02T07:27:35.889Z,98742.94
2022-09-02T07:30:05.246Z,98744.97
2022-09-02T07:32:34.643Z,98741.63
2022-09-02T07:35:03.199Z,98739.94
2022-09-02T07:37:34.811Z,98740.63
2022-09-02T07:40:03.474Z,98743.31
2022-09-02T07:42:31.939Z,98741.28
2022-09-02T07:45:01.380Z,98746.00
2022-09-02T07:47:29.988Z,98738.94
2022-09-02T07:52:49.912Z,98746.84
2022-09-02T07:55:18.435Z,98740.63
2022-09-02T07:57:47.179Z,98744.34
2022-09-02T08:00:16.885Z,98737.44
2022-09-02T08:02:45.522Z,98742.28
2022-09-02T08:05:14.108Z,98737.56
2022-09-02T08:07:42.620Z,98735.72
2022-09-02T08:10:14.006Z,98739.22
2022-09-02T08:12:42.707Z,98732.03
2022-09-02T08:15:12.301Z,98733.53
2022-09-02T08:17:41.791Z,98728.97
2022-09-02T08:20:12.651Z,98732.03
2022-09-02T08:22:41.604Z,98729.31
2022-09-02T08:25:12.743Z,98730.47
2022-09-02T08:27:42.030Z,98732.34
2022-09-02T08:30:11.453Z,98734.00
2022-09-02T08:32:40.186Z,98729.28
2022-09-02T08:35:09.995Z,98732.13
2022-09-02T08:37:38.916Z,98725.91
2022-09-02T08:40:09.870Z,98724.91
2022-09-02T08:42:44.611Z,98726.59
2022-09-02T08:45:16.286Z,98728.25
2022-09-02T08:47:47.495Z,98727.91
2022-09-02T08:50:17.538Z,98722.34
2022-09-02T08:52:56.683Z,98719.50
2022-09-02T08:55:28.118Z,98715.59
2022-09-02T08:57:58.052Z,98715.97
2022-09-02T09:00:26.650Z,98705.88
2022-09-02T09:02:59.841Z,98700.13
2022-09-02T09:05:36.873Z,98703.84
2022-09-02T09:08:14.553Z,98710.41
2022-09-02T09:10:53.035Z,98707.03
2022-09-02T09:13:52.080Z,98704.84
2022-09-02T09:16:27.901Z,98702.16
2022-09-02T09:19:06.919Z,98700.13
2022-09-02T09:21:37.321Z,98696.41
2022-09-02T09:24:12.648Z,98699.28
2022-09-02T09:26:41.458Z,98695.09
2022-09-02T09:29:11.213Z,98692.41
2022-09-02T09:31:39.944Z,98698.47
2022-09-02T09:34:09.958Z,98693.91
2022-09-02T09:36:51.311Z,98691.38
2022-09-02T09:39:28.179Z,98693.44
2022-09-02T09:41:57.625Z,98691.56
2022-09-02T09:44:45.144Z,98690.06
2022-09-02T09:47:19.737Z,98690.56
2022-09-02T09:49:51.528Z,98690.38
2022-09-02T09:52:30.263Z,98696.78
2022-09-02T09:55:12.605Z,98690.75
2022-09-02T09:57:41.918Z,98693.72
2022-09-02T10:00:22.717Z,98694.06
2022-09-02T10:02:52.398Z,98692.09
2022-09-02T10:05:33.732Z,98687.38
2022-09-02T10:08:03.268Z,98682.66
2022-09-02T10:10:33.237Z,98679.47
2022-09-02T10:16:11.632Z,98667.50
2022-09-02T10:18:42.457Z,98668.53
2022-09-02T10:21:18.622Z,98671.03
2022-09-02T10:23:51.672Z,98666.50
2022-09-02T10:26:27.217Z,98664.44
2022-09-02T10:29:27.446Z,98660.25
2022-09-02T10:32:15.703Z,98666.84
2022-09-02T10:34:48.594Z,98659.81
2022-09-02T10:37:19.466Z,98662.88
2022-09-02T10:40:09.633Z,98667.56
2022-09-02T10:42:47.131Z,98662.88
2022-09-02T10:45:25.840Z,98661.13
2022-09-02T10:48:04.124Z,98667.03
2022-09-02T10:50:40.759Z,98669.72
2022-09-02T10:53:39.773Z,98671.22
2022-09-02T10:56:11.884Z,98660.75
2022-09-02T10:58:46.816Z,98661.94
2022-09-02T11:01:19.913Z,98650.34
2022-09-02T11:04:00.179Z,98656.38
2022-09-02T11:06:40.303Z,98652.69
2022-09-02T11:09:28.028Z,98655.53
2022-09-02T11:12:00.618Z,98648.78
2022-09-02T11:14:33.040Z,98645.06
2022-09-02T11:17:04.388Z,98654.88
2022-09-02T11:19:38.276Z,98649.47
2022-09-02T11:22:14.409Z,98657.41
2022-09-02T11:24:48.553Z,98661.75
2022-09-02T11:27:38.881Z,98653.88
2022-09-02T11:30:13.648Z,98646.97
2022-09-02T11:32:45.849Z,98640.56
2022-09-02T11:35:19.914Z,98628.44
2022-09-02T11:37:51.096Z,98631.59
2022-09-02T11:40:35.155Z,98634.47
2022-09-02T11:43:17.543Z,98634.66
2022-09-02T11:46:41.467Z,98644.41
2022-09-02T11:49:52.820Z,98637.69
2022-09-02T11:52:36.416Z,98638.84
2022-09-02T11:55:11.286Z,98645.44
2022-09-02T11:57:41.718Z,98646.44
2022-09-02T12:00:36.921Z,98630.94
2022-09-02T12:03:39.139Z,98635.16
2022-09-02T12:06:13.755Z,98632.31
2022-09-02T12:09:08.155Z,98625.53
2022-09-02T12:11:48.382Z,98630.75
2022-09-02T12:15:15.018Z,98624.03
2022-09-02T12:18:10.797Z,98620.00
2022-09-02T12:21:16.278Z,98615.59
2022-09-02T12:24:22.686Z,98613.94
2022-09-02T12:27:29.283Z,98619.84
2022-09-02T12:29:58.930Z,98616.97
2022-09-02T12:33:05.170Z,98605.16
2022-09-02T12:35:58.310Z,98606.88
2022-09-02T12:38:32.458Z,98604.16
2022-09-02T12:41:29.794Z,98590.88
2022-09-02T12:44:27.818Z,98592.41
2022-09-02T12:47:07.577Z,98592.22
2022-09-02T12:49:44.422Z,98590.03
2022-09-02T12:52:13.433Z,98587.69
2022-09-02T12:54:47.979Z,98582.97
2022-09-02T12:57:19.291Z,98577.72
2022-09-02T12:59:48.437Z,98583.13
2022-09-02T13:02:37.984Z,98582.97
2022-09-02T13:05:20.500Z,98579.59
2022-09-02T13:08:20.214Z,98579.28
2022-09-02T13:11:29.740Z,98570.75
2022-09-02T13:14:49.209Z,98576.97
2022-09-02T13:17:37.172Z,98570.53
2022-09-02T13:20:40.977Z,98572.25
2022-09-02T13:23:49.485Z,98574.28
2022-09-02T13:26:48.458Z,98575.28
2022-09-02T13:30:03.153Z,98564.34
2022-09-02T13:32:32.017Z,98577.78
2022-09-02T13:35:02.649Z,98578.81
2022-09-02T13:37:33.569Z,98575.28
2022-09-02T13:40:05.280Z,98569.88
2022-09-02T13:42:33.712Z,98570.91
2022-09-02T13:45:15.278Z,98570.91
2022-09-02T13:47:45.278Z,98570.09
2022-09-02T13:50:15.903Z,98568.22
2022-09-02T13:53:45.042Z,98565.53
2022-09-02T13:55:32.885Z,98557.44
2022-09-02T13:58:03.768Z,98552.72
2022-09-02T14:00:36.230Z,98556.63
2022-09-02T14:03:06.695Z,98555.94
2022-09-02T14:05:36.702Z,98558.81
2022-09-02T14:08:07.691Z,98560.66
2022-09-02T14:10:36.357Z,98558.47
2022-09-02T14:13:05.264Z,98560.31
2022-09-02T14:15:35.685Z,98556.97
2022-09-02T14:18:18.091Z,98558.66
2022-09-02T14:21:00.491Z,98559.09
2022-09-02T14:23:29.980Z,98558.78
2022-09-02T14:25:59.660Z,98552.38
2022-09-02T14:28:30.088Z,98558.78
2022-09-02T14:31:02.527Z,98552.16
2022-09-02T14:33:42.598Z,98546.44
2022-09-02T14:36:13.400Z,98545.94
2022-09-02T14:38:52.703Z,98551.34
2022-09-02T14:41:26.521Z,98546.78
2022-09-02T14:43:58.080Z,98541.22
2022-09-02T14:46:29.410Z,98544.28
2022-09-02T14:49:04.043Z,98542.41
2022-09-02T14:51:38.586Z,98542.63
2022-09-02T14:54:07.989Z,98538.22
2022-09-02T14:56:48.292Z,98527.75
2022-09-02T14:59:17.236Z,98535.66
2022-09-02T15:01:48.087Z,98528.41
2022-09-02T15:04:16.723Z,98538.38
2022-09-02T15:06:45.181Z,98539.34
2022-09-02T15:09:16.570Z,98540.19
2022-09-02T15:11:46.994Z,98537.19
2022-09-02T15:14:15.515Z,98536.50
2022-09-02T15:16:43.985Z,98534.31
2022-09-02T15:19:13.964Z,98540.72
2022-09-02T15:21:42.414Z,98537.19
2022-09-02T15:24:11.000Z,98534.63
2022-09-02T15:26:39.637Z,98531.13
2022-09-02T15:29:08.269Z,98527.59
2022-09-02T15:31:36.691Z,98535.66
2022-09-02T15:34:05.351Z,98530.13
2022-09-02T15:36:35.138Z,98530.28
2022-09-02T15:39:03.627Z,98534.63
2022-09-02T15:41:32.425Z,98532.81
2022-09-02T15:44:01.015Z,98531.94
2022-09-02T15:46:30.448Z,98532.63
2022-09-02T15:49:03.259Z,98533.47
2022-09-02T15:51:31.880Z,98529.94
2022-09-02T15:54:02.971Z,98523.19
2022-09-02T15:56:32.943Z,98530.28
2022-09-02T15:59:03.590Z,98528.25
2022-09-02T16:01:33.497Z,98531.94
2022-09-02T16:04:02.883Z,98537.34
2022-09-02T16:06:31.644Z,98531.13
2022-09-02T16:09:01.592Z,98532.81
2022-09-02T16:11:30.140Z,98541.06
2022-09-02T16:13:58.854Z,98531.63
2022-09-02T16:16:27.323Z,98537.81
2022-09-02T16:18:55.915Z,98533.47
2022-09-02T16:21:25.303Z,98532.81
2022-09-02T16:23:54.085Z,98533.47
2022-09-02T16:26:27.977Z,98532.81
2022-09-02T16:28:57.904Z,98531.13
2022-09-02T16:31:28.247Z,98526.41
2022-09-02T16:33:58.210Z,98536.34
2022-09-02T16:36:29.116Z,98539.19
2022-09-02T16:39:02.154Z,98533.16
2022-09-02T16:41:34.762Z,98531.94
2022-09-02T16:44:05.684Z,98535.50
2022-09-02T16:46:34.899Z,98530.13
2022-09-02T16:49:03.427Z,98531.13
2022-09-02T16:51:33.503Z,98525.72
2022-09-02T16:54:02.999Z,98530.13
2022-09-02T16:56:32.899Z,98529.25
2022-09-02T16:59:02.870Z,98529.13
2022-09-02T17:01:32.695Z,98529.75
2022-09-02T17:04:01.578Z,98525.22
2022-09-02T17:06:30.213Z,98520.66
2022-09-02T17:08:58.758Z,98528.75
2022-09-02T17:11:28.521Z,98528.75
2022-09-02T17:13:59.456Z,98526.88
2022-09-02T17:16:29.185Z,98528.75
2022-09-02T17:18:57.843Z,98527.91
2022-09-02T17:21:28.691Z,98525.84
2022-09-02T17:23:57.302Z,98526.69
2022-09-02T17:26:28.317Z,98526.69
2022-09-02T17:28:58.107Z,98524.84
2022-09-02T17:31:27.838Z,98525.31
2022-09-02T17:33:57.821Z,98530.72
2022-09-02T17:36:27.521Z,98538.13
2022-09-02T17:39:00.060Z,98529.88
2022-09-02T17:41:46.518Z,98528.00
2022-09-02T17:44:16.674Z,98525.78
2022-09-02T17:46:45.444Z,98535.56
2022-09-02T17:49:17.317Z,98530.34
2022-09-02T17:51:46.624Z,98530.34
2022-09-02T17:54:15.339Z,98524.78
2022-09-02T17:57:20.918Z,98538.06
2022-09-02T18:00:11.390Z,98541.78
2022-09-02T18:02:55.623Z,98533.69
2022-09-02T18:05:29.242Z,98538.78
2022-09-02T18:08:02.260Z,98539.75
2022-09-02T18:10:33.556Z,98537.41
2022-09-02T18:13:05.615Z,98541.56
2022-09-02T18:15:38.274Z,98548.84
2022-09-02T18:18:07.456Z,98552.56
2022-09-02T18:20:41.938Z,98547.84
2022-09-02T18:23:24.192Z,98546.78
2022-09-02T18:25:57.201Z,98547.84
2022-09-02T18:28:39.173Z,98543.44
2022-09-02T18:31:19.136Z,98551.72
2022-09-02T18:34:19.018Z,98544.63
2022-09-02T18:36:52.676Z,98552.91
2022-09-02T18:39:34.321Z,98552.09
2022-09-02T18:42:12.437Z,98555.63
2022-09-02T18:44:44.579Z,98555.63
2022-09-02T18:47:17.159Z,98549.41
2022-09-02T18:49:45.596Z,98550.41
2022-09-02T18:52:14.446Z,98553.91
2022-09-02T18:54:48.070Z,98551.22
2022-09-02T18:57:16.557Z,98547.69
2022-09-02T18:59:58.283Z,98553.91
2022-09-02T19:02:33.680Z,98548.53
2022-09-02T19:05:02.680Z,98549.41
2022-09-02T19:07:49.005Z,98553.28
2022-09-02T19:10:17.567Z,98548.91
2022-09-02T19:12:46.216Z,98545.22
2022-09-02T19:15:14.632Z,98541.66
2022-09-02T19:17:49.721Z,98553.09
2022-09-02T19:20:18.859Z,98547.91
2022-09-02T19:22:50.316Z,98545.38
2022-09-02T19:25:20.703Z,98545.53
2022-09-02T19:27:49.632Z,98546.41
2022-09-02T19:30:22.192Z,98542.00
2022-09-02T19:32:56.540Z,98549.25
2022-09-02T19:35:27.521Z,98550.28
2022-09-02T19:37:56.388Z,98550.47
2022-09-02T19:40:26.365Z,98551.50
2022-09-02T19:42:55.360Z,98552.31
2022-09-02T19:45:23.965Z,98548.97
2022-09-02T19:48:09.666Z,98553.03
2022-09-02T19:50:41.029Z,98557.72
2022-09-02T19:53:10.827Z,98554.34
2022-09-02T19:55:39.334Z,98556.06
2022-09-02T19:58:07.845Z,98554.34
2022-09-02T20:00:36.340Z,98558.53
2022-09-02T20:03:06.577Z,98551.28
2022-09-02T20:05:35.876Z,98559.56
2022-09-02T20:08:04.726Z,98550.66
2022-09-02T20:10:33.195Z,98556.06
2022-09-02T20:13:01.710Z,98557.06
2022-09-02T20:15:30.183Z,98554.53
2022-09-02T20:18:09.954Z,98552.66
2022-09-02T20:20:38.718Z,98541.88
2022-09-02T20:23:07.964Z,98552.50
2022-09-02T20:25:45.202Z,98542.72
2022-09-02T20:28:18.370Z,98554.34
2022-09-02T20:30:48.734Z,98546.94
2022-09-02T20:33:24.132Z,98558.75
2022-09-02T20:36:09.584Z,98552.81
2022-09-02T20:39:01.169Z,98552.66
2022-09-02T20:41:35.031Z,98555.72
2022-09-02T20:44:17.608Z,98553.84
2022-09-02T20:46:56.330Z,98560.06
2022-09-02T20:49:43.122Z,98560.25
2022-09-02T20:52:15.560Z,98553.03
2022-09-02T20:54:48.362Z,98558.41
2022-09-02T20:57:32.397Z,98561.94
2022-09-02T21:00:07.234Z,98564.25
2022-09-02T21:02:40.542Z,98560.56
2022-09-02T21:05:14.279Z,98565.47
2022-09-02T21:07:55.550Z,98562.78
2022-09-02T21:10:29.978Z,98565.81
2022-09-02T21:13:03.553Z,98560.44
2022-09-02T21:15:33.810Z,98570.38
2022-09-02T21:18:05.425Z,98565.81
2022-09-02T21:20:44.878Z,98566.66
2022-09-02T21:23:21.533Z,98572.25
2022-09-02T21:25:54.032Z,98575.09
2022-09-02T21:28:27.045Z,98574.94
2022-09-02T21:30:59.568Z,98569.56
2022-09-02T21:33:28.107Z,98573.91
2022-09-02T21:35:59.172Z,98571.22
2022-09-02T21:38:33.520Z,98561.47
2022-09-02T21:41:12.748Z,98560.59
2022-09-02T21:43:51.967Z,98561.63
2022-09-02T21:46:31.150Z,98557.44
2022-09-02T21:49:04.633Z,98566.19
2022-09-02T21:51:37.255Z,98561.63
2022-09-02T21:54:25.754Z,98563.31
2022-09-02T21:57:06.823Z,98562.47
2022-09-02T21:59:58.853Z,98566.00
2022-09-02T22:02:50.300Z,98567.03
2022-09-02T22:05:35.130Z,98565.16
2022-09-02T22:08:11.421Z,98566.84
2022-09-02T22:10:45.114Z,98573.72
2022-09-02T22:13:13.611Z,98563.81
2022-09-02T22:15:56.585Z,98564.81
2022-09-02T22:18:39.437Z,98565.81
2022-09-02T22:21:17.190Z,98567.69
2022-09-02T22:23:47.811Z,98568.53
2022-09-02T22:26:30.204Z,98564.16
2022-09-02T22:29:03.929Z,98562.47
2022-09-02T22:31:33.650Z,98564.16
2022-09-02T22:34:03.852Z,98556.09
2022-09-02T22:36:56.456Z,98556.25
2022-09-02T22:39:34.021Z,98547.50
2022-09-02T22:42:11.512Z,98557.09
2022-09-02T22:45:01.202Z,98555.41
2022-09-02T22:47:47.868Z,98558.13
2022-09-02T22:50:46.396Z,98553.72
2022-09-02T22:53:14.786Z,98545.66
2022-09-02T22:55:54.526Z,98552.06
2022-09-02T22:59:02.761Z,98554.75
2022-09-02T23:01:40.233Z,98549.53
2022-09-02T23:04:30.370Z,98545.00
2022-09-02T23:07:05.136Z,98539.63
2022-09-02T23:09:34.460Z,98544.16
2022-09-02T23:12:11.531Z,98531.72
2022-09-02T23:14:48.223Z,98544.34
2022-09-02T23:17:23.725Z,98554.28
2022-09-02T23:20:11.968Z,98539.13
2022-09-02T23:22:55.227Z,98538.28
2022-09-02T23:25:41.605Z,98533.75
2022-09-02T23:28:17.055Z,98539.31
2022-09-02T23:31:01.237Z,98529.38
2022-09-02T23:33:39.950Z,98537.47
2022-09-02T23:36:15.698Z,98532.25
2022-09-02T23:39:08.696Z,98534.09
2022-09-02T23:41:38.111Z,98522.50
2022-09-02T23:44:08.787Z,98530.59
2022-09-02T23:46:48.471Z,98527.88
2022-09-02T23:49:25.608Z,98526.22
2022-09-02T23:51:58.485Z,98533.28
2022-09-02T23:54:51.006Z,98535.13
2022-09-02T23:57:36.018Z,98531.63
